EHSC

Goeree Le Sea

Goeree Le Sea, The Netherlands
METAR EHSC 141325Z AUTO 27016KT 9999 ///////// 19/16 Q1016 W21/H10
Observed Flight Rules
Aug-14 @ 13:25 UTC (17 minutes ago)
Wind Visibility
270° at 16 knots 10,000+ meters
Temperatures Readings
Current 19°C / 66°F
Dewpoint 16°C / 61°F
Humidity 83%
Altimeter 30" Hg
Pressure 1016 hPa
Elevation 50
METAR EHSC 141325Z AUTO 27016KT 9999 ///////// 19/16 Q1016 W21/H10
Observed Flight Rules
Aug-14 @ 13:25 UTC
(17 minutes ago)
Wind Visibility
270° at 16 knots 10,000+ meters
Temperature Dewpoint
19°C / 66°F 16°C / 61°F
Humidity Altimeter Pressure
83% 30" Hg 1016 hPa